AirNav   Air Wisconsin Up To $57,000 Bonus
 
 1424 users online  

73TA Reynolds Ranch Airport
Bayview, Texas, USA

GOING TO BAYVIEW?


FAA INFORMATION EFFECTIVE 30 DECEMBER 2021

Location

FAA Identifier: 73TA
Lat/Long: 26-09-30.3300N 097-23-19.2800W
26-09.505500N 097-23.321333W
26.1584250,-97.3886889
(estimated)
Elevation: 24 ft. / 7 m (estimated)
From city: 2 miles NNE of BAYVIEW, TX
Time zone: UTC -6 (UTC -5 during Daylight Saving Time)
Zip code: 78566

Airport Operations

Airport use: Private use. Permission required prior to landing
Activation date: 01/2017
Control tower: no
ARTCC: HOUSTON CENTER
FSS: SAN ANGELO FLIGHT SERVICE STATION
Attendance: 
Segmented circle: no

Airport Communications

WX ASOS at PIL (2.4 nm E): 118.525 (956-233-1954)
WX ASOS at HRL (15 nm W): 124.85 (956-428-7297)
WX ASOS at BRO (15 nm S): 128.55 (956-546-4540)

Nearby radio navigation aids

VOR radial/distance  VOR name  Freq  Var
BROr348/14.1BROWNSVILLE VORTAC116.3009E
HRLr102/14.8HARLINGEN VOR/DME113.6505E
MAMr013/24.4MATAMOROS VOR/DME114.3004E

 
NDB name  Hdg/Dist  Freq  Var  ID
DEPOO029/12.339303EBR -... .-.

Airport Services

Runway Information

Runway 2/20

Dimensions: 2000 x 50 ft. / 610 x 15 m
Surface: turf
RUNWAY 2  RUNWAY 20
Latitude: 26-09.352167N26-09.658667N
Longitude: 097-23.389000W097-23.253500W
Elevation: 23.0 ft.24.0 ft.
Traffic pattern: leftleft
Runway heading: 022 true202 true

Airport Ownership and Management from official FAA records

Ownership: Privately-owned
Owner: STEPHEN REYNOLDS
27677 LOOP ROAD
BAYVIEW, TX 78566
Phone 956-330-3082
ECHOHOTEL@AOL.COM
Manager: STEPHEN REYNOLDS
27677 LOOP ROAD
BAYVIEW, TX 78566
Phone 956-330-3082

Airport Operational Statistics

Aircraft based on the field: 1
Single engine airplanes: 1
    

Additional Remarks

FOR CD CTC HOUSTON ARTCC AT 281-230-5622.

Instrument Procedures

There are no published instrument procedures at 73TA.

Some nearby airports with instrument procedures:

KPIL - Port Isabel-Cameron County Airport (2 nm E)
KHRL - Valley International Airport (15 nm W)
KBRO - Brownsville/South Padre Island International Airport (15 nm S)
KTXW - Mid Valley Airport (32 nm W)
KEBG - South Texas International Airport at Edinburg (43 nm NW)
 
Loc | Ops | Rwys | IFR | FBO | Links
Com | Nav | Svcs | Stats | Notes
Aerial photo
No photo
 
Airport distance calculator
Flying to Reynolds Ranch Airport? Find the distance to fly.

From to 73TA

Sunrise and sunset
Times for 19-Jan-2022
 Local
(UTC-6)
 Zulu
(UTC)
Morning civil twilight06:5512:55
Sunrise07:1913:19
Sunset18:0200:02
Evening civil twilight18:2600:26

Current date and time
Zulu (UTC)  19-Jan-2022 18:07:51
Local (UTC-6)  19-Jan-2022 12:07:51
 
METAR
KPIL 
3nm E 
191753Z AUTO 19015G26KT 9SM SCT024 BKN041 26/19 A2995 RMK AO2 PK WND 19026/1752 SLP141 60000 T02560189 10261 20189 58002
KHRL 
15nm W 
191752Z 20020G28KT 10SM BKN030 BKN040 27/18 A2994 RMK AO2 PK WND 18031/1705 SLP139 T02670178 10272 20178 58002
KBRO 
16nm S 
191753Z 18021G28KT 5SM HZ SCT025 SCT033 27/19 A2996 RMK AO2 PK WND 18028/1746 SLP143 T02720189 10278 20194 50000
TAF
KHRL 
15nm W 
191459Z 1915/2012 18013KT P6SM SKC FM191600 18018G25KT P6SM SCT050 FM200000 17008KT P6SM SCT025 FM200700 23005KT 4SM BR VCSH BKN025 FM201100 36013G20KT P6SM OVC025
KBRO 
16nm S 
191720Z 1918/2018 18014KT 5SM HZ BKN019 BKN029 OVC035 FM200300 16008KT P6SM SCT200 FM200800 18006KT 5SM BR BKN250 FM201000 VRB04KT 4SM BR BKN018 FM201200 36014KT P6SM BKN014 PROB30 2012/2018 4SM -SHRA OVC008
NOTAMs
Click for the latest NOTAMs
NOTAMs are issued by the DoD/FAA and will open in a separate window not controlled by AirNav.

 

 
 

Would you like to see your business listed on this page?

 If your business provides an interesting product or service to pilots, flight crews, aircraft, or users of the Reynolds Ranch Airport, you should consider listing it here.  To start the listing process, click on the button below
 
Add a business
 

Other Pages about Reynolds Ranch Airport

Update a link
 
Copyright © AirNav, LLC. All rights reserved. Privacy Policy  Contact